sensor_id;sensor_type;location;lat;lon;timestamp;pressure;altitude;pressure_sealevel;temperature;humidity
17230;BME280;8731;50.364;8.958;2023-03-23T00:04:14;99240.41;;;14.33;59.12
17230;BME280;8731;50.364;8.958;2023-03-23T00:08:38;99238.91;;;14.37;59.03
17230;BME280;8731;50.364;8.958;2023-03-23T00:13:05;99226.28;;;14.40;58.94
17230;BME280;8731;50.364;8.958;2023-03-23T00:17:30;99232.41;;;14.42;59.14
17230;BME280;8731;50.364;8.958;2023-03-23T00:21:53;99227.19;;;14.40;58.87
17230;BME280;8731;50.364;8.958;2023-03-23T00:26:15;99220.81;;;14.47;58.73
17230;BME280;8731;50.364;8.958;2023-03-23T00:30:38;99220.81;;;14.47;58.93
17230;BME280;8731;50.364;8.958;2023-03-23T00:35:04;99225.16;;;14.48;59.01
17230;BME280;8731;50.364;8.958;2023-03-23T00:39:27;99221.78;;;14.49;59.68
17230;BME280;8731;50.364;8.958;2023-03-23T00:43:50;99213.72;;;14.43;60.57
17230;BME280;8731;50.364;8.958;2023-03-23T00:48:12;99221.00;;;14.50;60.40
17230;BME280;8731;50.364;8.958;2023-03-23T00:52:36;99214.38;;;14.40;60.66
17230;BME280;8731;50.364;8.958;2023-03-23T00:56:59;99212.16;;;14.45;60.73
17230;BME280;8731;50.364;8.958;2023-03-23T01:01:21;99201.13;;;14.46;60.98
17230;BME280;8731;50.364;8.958;2023-03-23T01:05:44;99198.34;;;14.43;61.17
17230;BME280;8731;50.364;8.958;2023-03-23T01:10:11;99191.41;;;14.42;61.14
17230;BME280;8731;50.364;8.958;2023-03-23T01:14:37;99194.41;;;14.35;61.36
17230;BME280;8731;50.364;8.958;2023-03-23T01:19:01;99185.94;;;14.36;61.04
17230;BME280;8731;50.364;8.958;2023-03-23T01:23:24;99177.97;;;14.31;61.71
17230;BME280;8731;50.364;8.958;2023-03-23T01:27:47;99167.13;;;14.35;61.66
17230;BME280;8731;50.364;8.958;2023-03-23T01:32:10;99164.88;;;14.27;62.35
17230;BME280;8731;50.364;8.958;2023-03-23T01:36:33;99165.06;;;14.30;62.23
17230;BME280;8731;50.364;8.958;2023-03-23T01:40:56;99162.50;;;14.30;62.55
17230;BME280;8731;50.364;8.958;2023-03-23T01:45:27;99173.47;;;14.27;62.63
17230;BME280;8731;50.364;8.958;2023-03-23T01:49:51;99174.06;;;14.23;62.21
17230;BME280;8731;50.364;8.958;2023-03-23T01:54:17;99162.53;;;14.17;62.36
17230;BME280;8731;50.364;8.958;2023-03-23T01:58:43;99164.91;;;14.13;62.01
17230;BME280;8731;50.364;8.958;2023-03-23T02:03:06;99167.97;;;14.21;62.23
17230;BME280;8731;50.364;8.958;2023-03-23T02:07:32;99174.75;;;14.21;61.83
17230;BME280;8731;50.364;8.958;2023-03-23T02:11:57;99166.06;;;14.19;61.93
17230;BME280;8731;50.364;8.958;2023-03-23T02:16:28;99164.13;;;14.14;62.16
17230;BME280;8731;50.364;8.958;2023-03-23T02:21:16;99154.75;;;14.15;62.44
17230;BME280;8731;50.364;8.958;2023-03-23T02:26:13;99182.25;;;14.04;62.96
17230;BME280;8731;50.364;8.958;2023-03-23T02:30:51;99173.97;;;14.08;63.13
17230;BME280;8731;50.364;8.958;2023-03-23T02:35:40;99144.06;;;14.07;63.34
17230;BME280;8731;50.364;8.958;2023-03-23T02:40:10;99137.34;;;14.09;62.87
17230;BME280;8731;50.364;8.958;2023-03-23T02:44:39;99129.06;;;14.13;63.08
17230;BME280;8731;50.364;8.958;2023-03-23T02:49:06;99145.31;;;14.14;63.51
17230;BME280;8731;50.364;8.958;2023-03-23T02:53:34;99146.00;;;14.11;64.47
17230;BME280;8731;50.364;8.958;2023-03-23T02:57:59;99142.66;;;14.12;64.73
17230;BME280;8731;50.364;8.958;2023-03-23T03:02:25;99149.28;;;14.09;65.54
17230;BME280;8731;50.364;8.958;2023-03-23T03:07:00;99146.72;;;14.09;65.57
17230;BME280;8731;50.364;8.958;2023-03-23T03:11:48;99160.63;;;13.99;66.57
17230;BME280;8731;50.364;8.958;2023-03-23T03:16:23;99149.41;;;13.97;66.66
17230;BME280;8731;50.364;8.958;2023-03-23T03:20:51;99163.00;;;13.96;67.34
17230;BME280;8731;50.364;8.958;2023-03-23T03:25:17;99152.63;;;13.95;67.48
17230;BME280;8731;50.364;8.958;2023-03-23T03:29:46;99147.38;;;13.78;69.23
17230;BME280;8731;50.364;8.958;2023-03-23T03:34:14;99153.56;;;13.82;70.01
17230;BME280;8731;50.364;8.958;2023-03-23T03:38:42;99140.94;;;13.85;70.24
17230;BME280;8731;50.364;8.958;2023-03-23T03:43:05;99141.66;;;13.82;70.14
17230;BME280;8731;50.364;8.958;2023-03-23T03:47:29;99143.31;;;13.82;70.52
17230;BME280;8731;50.364;8.958;2023-03-23T03:51:52;99165.56;;;13.70;71.42
17230;BME280;8731;50.364;8.958;2023-03-23T03:56:19;99161.63;;;13.35;72.08
17230;BME280;8731;50.364;8.958;2023-03-23T04:00:55;99151.97;;;13.44;72.32
17230;BME280;8731;50.364;8.958;2023-03-23T04:05:24;99154.84;;;13.36;72.14
17230;BME280;8731;50.364;8.958;2023-03-23T04:09:49;99151.09;;;13.31;72.93
17230;BME280;8731;50.364;8.958;2023-03-23T04:14:14;99148.06;;;13.49;72.75
17230;BME280;8731;50.364;8.958;2023-03-23T04:18:39;99152.50;;;13.52;73.27
17230;BME280;8731;50.364;8.958;2023-03-23T04:23:04;99144.50;;;13.47;73.17
17230;BME280;8731;50.364;8.958;2023-03-23T04:27:28;99151.00;;;13.42;74.60
17230;BME280;8731;50.364;8.958;2023-03-23T04:31:53;99150.00;;;13.40;74.70
17230;BME280;8731;50.364;8.958;2023-03-23T04:36:25;99164.75;;;13.18;76.90
17230;BME280;8731;50.364;8.958;2023-03-23T04:40:56;99165.56;;;13.30;76.02
17230;BME280;8731;50.364;8.958;2023-03-23T04:45:39;99166.69;;;13.22;77.21
17230;BME280;8731;50.364;8.958;2023-03-23T04:50:08;99173.59;;;13.23;77.15
17230;BME280;8731;50.364;8.958;2023-03-23T04:54:34;99168.91;;;13.29;76.34
17230;BME280;8731;50.364;8.958;2023-03-23T04:58:58;99181.50;;;13.26;76.42
17230;BME280;8731;50.364;8.958;2023-03-23T05:03:27;99174.97;;;13.18;76.82
17230;BME280;8731;50.364;8.958;2023-03-23T05:07:51;99175.34;;;13.24;76.42
17230;BME280;8731;50.364;8.958;2023-03-23T05:12:17;99179.47;;;13.22;77.96
17230;BME280;8731;50.364;8.958;2023-03-23T05:16:50;99181.34;;;13.25;76.76
17230;BME280;8731;50.364;8.958;2023-03-23T05:21:13;99177.47;;;13.05;76.75
17230;BME280;8731;50.364;8.958;2023-03-23T05:25:40;99190.50;;;13.21;77.39
17230;BME280;8731;50.364;8.958;2023-03-23T05:30:12;99193.00;;;13.08;78.00
17230;BME280;8731;50.364;8.958;2023-03-23T05:34:39;99191.13;;;13.05;79.78
17230;BME280;8731;50.364;8.958;2023-03-23T05:39:03;99190.88;;;12.89;78.86
17230;BME280;8731;50.364;8.958;2023-03-23T05:43:53;99178.25;;;13.04;79.59
17230;BME280;8731;50.364;8.958;2023-03-23T05:48:19;99177.03;;;12.85;78.43
17230;BME280;8731;50.364;8.958;2023-03-23T05:52:43;99168.00;;;12.90;79.17
17230;BME280;8731;50.364;8.958;2023-03-23T05:57:08;99178.41;;;12.94;79.29
17230;BME280;8731;50.364;8.958;2023-03-23T06:01:37;99184.69;;;12.85;80.38
17230;BME280;8731;50.364;8.958;2023-03-23T06:06:00;99203.97;;;12.94;79.32
17230;BME280;8731;50.364;8.958;2023-03-23T06:10:31;99207.69;;;12.99;79.32
17230;BME280;8731;50.364;8.958;2023-03-23T06:14:57;99211.13;;;12.86;81.01
17230;BME280;8731;50.364;8.958;2023-03-23T06:19:36;99210.63;;;12.91;81.47
17230;BME280;8731;50.364;8.958;2023-03-23T06:24:06;99214.16;;;12.80;80.00
17230;BME280;8731;50.364;8.958;2023-03-23T06:28:30;99224.38;;;12.80;82.30
17230;BME280;8731;50.364;8.958;2023-03-23T06:32:54;99225.09;;;12.91;82.60
17230;BME280;8731;50.364;8.958;2023-03-23T06:37:37;99209.56;;;12.88;82.05
17230;BME280;8731;50.364;8.958;2023-03-23T06:42:29;99207.38;;;12.81;83.66
17230;BME280;8731;50.364;8.958;2023-03-23T06:47:26;99204.28;;;12.73;81.18
17230;BME280;8731;50.364;8.958;2023-03-23T06:51:50;99207.72;;;12.74;84.59
17230;BME280;8731;50.364;8.958;2023-03-23T06:56:13;99205.69;;;12.81;83.07
17230;BME280;8731;50.364;8.958;2023-03-23T07:00:37;99216.03;;;12.83;82.82
17230;BME280;8731;50.364;8.958;2023-03-23T07:05:04;99223.63;;;12.95;83.04
17230;BME280;8731;50.364;8.958;2023-03-23T07:09:28;99241.41;;;12.93;84.61
17230;BME280;8731;50.364;8.958;2023-03-23T07:13:50;99240.31;;;12.89;84.60
17230;BME280;8731;50.364;8.958;2023-03-23T07:18:13;99241.59;;;12.96;84.80
17230;BME280;8731;50.364;8.958;2023-03-23T07:22:40;99240.81;;;12.97;84.20
17230;BME280;8731;50.364;8.958;2023-03-23T07:27:14;99242.38;;;12.95;81.75
17230;BME280;8731;50.364;8.958;2023-03-23T07:31:36;99244.47;;;13.01;83.14
17230;BME280;8731;50.364;8.958;2023-03-23T07:35:59;99242.66;;;12.86;84.32
17230;BME280;8731;50.364;8.958;2023-03-23T07:40:25;99243.75;;;12.90;86.06
17230;BME280;8731;50.364;8.958;2023-03-23T07:44:53;99255.94;;;12.94;85.37
17230;BME280;8731;50.364;8.958;2023-03-23T07:49:16;99260.66;;;12.88;83.75
17230;BME280;8731;50.364;8.958;2023-03-23T07:53:54;99274.41;;;12.90;83.79
17230;BME280;8731;50.364;8.958;2023-03-23T07:58:41;99273.53;;;12.89;84.57
17230;BME280;8731;50.364;8.958;2023-03-23T08:03:05;99279.78;;;12.81;84.52
17230;BME280;8731;50.364;8.958;2023-03-23T08:07:41;99272.16;;;12.95;85.74
17230;BME280;8731;50.364;8.958;2023-03-23T08:12:05;99279.03;;;12.96;86.78
17230;BME280;8731;50.364;8.958;2023-03-23T08:16:47;99284.53;;;12.88;85.04
17230;BME280;8731;50.364;8.958;2023-03-23T08:21:39;99282.53;;;12.84;84.85
17230;BME280;8731;50.364;8.958;2023-03-23T08:26:01;99292.47;;;13.05;85.76
17230;BME280;8731;50.364;8.958;2023-03-23T08:30:50;99289.44;;;13.10;85.69
17230;BME280;8731;50.364;8.958;2023-03-23T08:35:34;99304.88;;;13.12;86.37
17230;BME280;8731;50.364;8.958;2023-03-23T08:40:14;99303.56;;;13.05;85.85
17230;BME280;8731;50.364;8.958;2023-03-23T08:45:12;99322.44;;;13.07;86.64
17230;BME280;8731;50.364;8.958;2023-03-23T08:49:54;99320.78;;;13.08;86.34
17230;BME280;8731;50.364;8.958;2023-03-23T08:54:34;99318.44;;;13.11;87.84
17230;BME280;8731;50.364;8.958;2023-03-23T08:59:20;99328.09;;;13.27;86.82
17230;BME280;8731;50.364;8.958;2023-03-23T09:03:57;99327.75;;;13.22;87.43
17230;BME280;8731;50.364;8.958;2023-03-23T09:08:39;99319.75;;;13.17;85.47
17230;BME280;8731;50.364;8.958;2023-03-23T09:13:02;99317.75;;;13.13;85.33
17230;BME280;8731;50.364;8.958;2023-03-23T09:17:25;99314.97;;;13.22;87.02
17230;BME280;8731;50.364;8.958;2023-03-23T09:21:47;99303.84;;;13.21;86.88
17230;BME280;8731;50.364;8.958;2023-03-23T09:26:10;99286.94;;;13.24;85.01
17230;BME280;8731;50.364;8.958;2023-03-23T09:30:34;99301.66;;;13.39;85.45
17230;BME280;8731;50.364;8.958;2023-03-23T09:34:58;99301.34;;;13.35;86.40
17230;BME280;8731;50.364;8.958;2023-03-23T09:39:20;99303.63;;;13.43;83.80
17230;BME280;8731;50.364;8.958;2023-03-23T09:43:57;99318.19;;;13.44;85.90
17230;BME280;8731;50.364;8.958;2023-03-23T09:48:46;99306.63;;;13.63;84.89
17230;BME280;8731;50.364;8.958;2023-03-23T09:53:16;99319.63;;;13.66;84.31
17230;BME280;8731;50.364;8.958;2023-03-23T09:57:46;99324.06;;;13.68;84.11
17230;BME280;8731;50.364;8.958;2023-03-23T10:02:15;99324.09;;;13.81;84.73
17230;BME280;8731;50.364;8.958;2023-03-23T10:06:40;99318.88;;;13.80;84.91
17230;BME280;8731;50.364;8.958;2023-03-23T10:11:08;99311.88;;;13.91;85.08
17230;BME280;8731;50.364;8.958;2023-03-23T10:15:36;99313.19;;;13.97;83.45
17230;BME280;8731;50.364;8.958;2023-03-23T10:20:14;99320.00;;;13.97;83.26
17230;BME280;8731;50.364;8.958;2023-03-23T10:24:52;99315.63;;;13.96;82.86
17230;BME280;8731;50.364;8.958;2023-03-23T10:29:26;99315.84;;;13.99;84.85
17230;BME280;8731;50.364;8.958;2023-03-23T10:33:54;99330.53;;;14.01;84.93
17230;BME280;8731;50.364;8.958;2023-03-23T10:38:23;99332.50;;;14.05;85.71
17230;BME280;8731;50.364;8.958;2023-03-23T10:42:52;99337.38;;;13.89;86.05
17230;BME280;8731;50.364;8.958;2023-03-23T10:47:15;99348.69;;;13.79;86.22
17230;BME280;8731;50.364;8.958;2023-03-23T10:51:43;99332.06;;;13.86;86.27
17230;BME280;8731;50.364;8.958;2023-03-23T10:56:22;99330.88;;;13.81;84.37
17230;BME280;8731;50.364;8.958;2023-03-23T11:00:47;99329.91;;;13.92;82.73
17230;BME280;8731;50.364;8.958;2023-03-23T11:05:17;99320.34;;;13.90;81.58
17230;BME280;8731;50.364;8.958;2023-03-23T11:09:51;99315.66;;;14.09;79.44
17230;BME280;8731;50.364;8.958;2023-03-23T11:14:18;99323.03;;;14.31;81.48
17230;BME280;8731;50.364;8.958;2023-03-23T11:18:42;99330.50;;;14.41;80.95
17230;BME280;8731;50.364;8.958;2023-03-23T11:23:18;99323.72;;;14.41;79.70
17230;BME280;8731;50.364;8.958;2023-03-23T11:27:42;99319.13;;;14.49;77.11
17230;BME280;8731;50.364;8.958;2023-03-23T11:32:09;99308.75;;;14.61;77.34
17230;BME280;8731;50.364;8.958;2023-03-23T11:36:37;99310.38;;;14.87;77.31
17230;BME280;8731;50.364;8.958;2023-03-23T11:41:09;99307.09;;;14.89;74.72
17230;BME280;8731;50.364;8.958;2023-03-23T11:45:34;99307.13;;;15.17;75.30
17230;BME280;8731;50.364;8.958;2023-03-23T11:50:03;99310.53;;;15.03;73.61
17230;BME280;8731;50.364;8.958;2023-03-23T11:54:34;99326.78;;;15.31;76.15
17230;BME280;8731;50.364;8.958;2023-03-23T11:59:02;99336.84;;;15.28;75.29
17230;BME280;8731;50.364;8.958;2023-03-23T12:03:47;99332.00;;;15.05;76.74
17230;BME280;8731;50.364;8.958;2023-03-23T12:08:29;99315.91;;;15.08;76.00
17230;BME280;8731;50.364;8.958;2023-03-23T12:13:12;99311.84;;;14.96;77.13
17230;BME280;8731;50.364;8.958;2023-03-23T12:17:54;99314.50;;;14.98;76.71
17230;BME280;8731;50.364;8.958;2023-03-23T12:22:36;99313.50;;;14.96;76.06
17230;BME280;8731;50.364;8.958;2023-03-23T12:27:09;99307.88;;;15.01;76.45
17230;BME280;8731;50.364;8.958;2023-03-23T12:31:59;99297.34;;;14.97;76.28
17230;BME280;8731;50.364;8.958;2023-03-23T12:36:50;99289.41;;;15.07;76.29
17230;BME280;8731;50.364;8.958;2023-03-23T12:41:26;99286.28;;;14.98;76.50
17230;BME280;8731;50.364;8.958;2023-03-23T12:46:22;99283.44;;;14.93;76.89
17230;BME280;8731;50.364;8.958;2023-03-23T12:51:09;99279.94;;;14.78;75.91
17230;BME280;8731;50.364;8.958;2023-03-23T12:55:39;99267.22;;;14.80;76.30
17230;BME280;8731;50.364;8.958;2023-03-23T13:00:12;99269.16;;;14.84;76.75
17230;BME280;8731;50.364;8.958;2023-03-23T13:04:42;99286.31;;;14.85;77.17
17230;BME280;8731;50.364;8.958;2023-03-23T13:09:14;99286.31;;;14.85;76.23
17230;BME280;8731;50.364;8.958;2023-03-23T13:13:47;99275.88;;;14.82;75.47
17230;BME280;8731;50.364;8.958;2023-03-23T13:18:16;99280.91;;;14.93;76.72
17230;BME280;8731;50.364;8.958;2023-03-23T13:22:49;99276.50;;;15.05;76.77
17230;BME280;8731;50.364;8.958;2023-03-23T13:27:15;99278.84;;;15.16;76.35
17230;BME280;8731;50.364;8.958;2023-03-23T13:31:38;99272.13;;;15.18;76.81
17230;BME280;8731;50.364;8.958;2023-03-23T13:36:05;99273.19;;;15.36;76.65
17230;BME280;8731;50.364;8.958;2023-03-23T13:40:33;99259.28;;;15.32;75.63
17230;BME280;8731;50.364;8.958;2023-03-23T13:45:19;99265.41;;;15.49;75.91
17230;BME280;8731;50.364;8.958;2023-03-23T13:49:51;99263.94;;;15.38;74.97
17230;BME280;8731;50.364;8.958;2023-03-23T13:54:23;99253.44;;;15.63;75.34
17230;BME280;8731;50.364;8.958;2023-03-23T13:58:53;99237.63;;;15.57;75.50
17230;BME280;8731;50.364;8.958;2023-03-23T14:03:36;99236.44;;;15.65;74.32
17230;BME280;8731;50.364;8.958;2023-03-23T14:08:02;99233.59;;;15.75;74.10
17230;BME280;8731;50.364;8.958;2023-03-23T14:12:33;99239.44;;;15.87;73.22
17230;BME280;8731;50.364;8.958;2023-03-23T14:17:05;99242.50;;;15.82;72.93
17230;BME280;8731;50.364;8.958;2023-03-23T14:21:34;99245.00;;;15.80;73.19
17230;BME280;8731;50.364;8.958;2023-03-23T14:26:01;99250.03;;;15.93;72.44
17230;BME280;8731;50.364;8.958;2023-03-23T14:30:35;99253.56;;;15.95;72.20
17230;BME280;8731;50.364;8.958;2023-03-23T14:34:58;99241.78;;;15.99;70.76
17230;BME280;8731;50.364;8.958;2023-03-23T14:39:27;99243.78;;;15.88;69.94
17230;BME280;8731;50.364;8.958;2023-03-23T14:43:51;99238.81;;;15.91;70.41
17230;BME280;8731;50.364;8.958;2023-03-23T14:48:15;99241.03;;;15.85;69.13
17230;BME280;8731;50.364;8.958;2023-03-23T14:52:38;99235.34;;;15.91;70.37
17230;BME280;8731;50.364;8.958;2023-03-23T14:57:11;99246.38;;;16.05;71.50
17230;BME280;8731;50.364;8.958;2023-03-23T15:01:36;99243.47;;;15.84;71.44
17230;BME280;8731;50.364;8.958;2023-03-23T15:06:03;99235.69;;;15.82;72.53
17230;BME280;8731;50.364;8.958;2023-03-23T15:10:30;99237.13;;;15.77;72.99
17230;BME280;8731;50.364;8.958;2023-03-23T15:14:56;99237.31;;;15.80;72.95
17230;BME280;8731;50.364;8.958;2023-03-23T15:19:22;99228.13;;;15.69;73.07
17230;BME280;8731;50.364;8.958;2023-03-23T15:23:46;99232.63;;;15.73;72.24
17230;BME280;8731;50.364;8.958;2023-03-23T15:28:16;99223.50;;;15.78;72.55
17230;BME280;8731;50.364;8.958;2023-03-23T15:32:42;99234.09;;;15.84;71.62
17230;BME280;8731;50.364;8.958;2023-03-23T15:37:20;99228.91;;;15.68;71.74
17230;BME280;8731;50.364;8.958;2023-03-23T15:41:48;99232.44;;;15.70;72.61
17230;BME280;8731;50.364;8.958;2023-03-23T15:46:20;99231.81;;;15.59;73.73
17230;BME280;8731;50.364;8.958;2023-03-23T15:50:46;99228.38;;;15.59;73.73
17230;BME280;8731;50.364;8.958;2023-03-23T15:55:22;99226.97;;;15.64;73.95
17230;BME280;8731;50.364;8.958;2023-03-23T15:59:46;99235.69;;;15.53;73.44
17230;BME280;8731;50.364;8.958;2023-03-23T16:04:11;99241.44;;;15.49;72.80
17230;BME280;8731;50.364;8.958;2023-03-23T16:08:37;99239.91;;;15.38;72.08
17230;BME280;8731;50.364;8.958;2023-03-23T16:13:00;99243.22;;;15.50;72.40
17230;BME280;8731;50.364;8.958;2023-03-23T16:17:24;99246.22;;;15.43;71.85
17230;BME280;8731;50.364;8.958;2023-03-23T16:21:47;99255.75;;;15.30;71.84
17230;BME280;8731;50.364;8.958;2023-03-23T16:26:11;99255.78;;;15.45;71.53
17230;BME280;8731;50.364;8.958;2023-03-23T16:30:34;99257.78;;;15.36;71.53
17230;BME280;8731;50.364;8.958;2023-03-23T16:34:56;99253.72;;;15.25;71.29
17230;BME280;8731;50.364;8.958;2023-03-23T16:39:18;99260.63;;;15.26;71.19
17230;BME280;8731;50.364;8.958;2023-03-23T16:43:42;99260.44;;;15.38;71.71
17230;BME280;8731;50.364;8.958;2023-03-23T16:48:05;99261.16;;;15.20;71.79
17230;BME280;8731;50.364;8.958;2023-03-23T16:52:28;99265.72;;;15.11;72.08
17230;BME280;8731;50.364;8.958;2023-03-23T16:56:50;99263.22;;;15.13;72.34
17230;BME280;8731;50.364;8.958;2023-03-23T17:01:14;99262.56;;;15.15;72.95
17230;BME280;8731;50.364;8.958;2023-03-23T17:05:37;99260.59;;;15.11;73.84
17230;BME280;8731;50.364;8.958;2023-03-23T17:10:00;99261.09;;;14.91;75.24
17230;BME280;8731;50.364;8.958;2023-03-23T17:14:22;99262.81;;;14.64;76.82
17230;BME280;8731;50.364;8.958;2023-03-23T17:18:46;99259.06;;;14.72;77.38
17230;BME280;8731;50.364;8.958;2023-03-23T17:23:08;99252.66;;;14.65;78.30
17230;BME280;8731;50.364;8.958;2023-03-23T17:27:31;99235.16;;;14.58;78.73
17230;BME280;8731;50.364;8.958;2023-03-23T17:31:54;99248.94;;;14.60;79.52
17230;BME280;8731;50.364;8.958;2023-03-23T17:36:17;99245.03;;;14.52;80.60
17230;BME280;8731;50.364;8.958;2023-03-23T17:40:40;99253.91;;;14.31;80.19
17230;BME280;8731;50.364;8.958;2023-03-23T17:45:02;99256.00;;;14.23;81.48
17230;BME280;8731;50.364;8.958;2023-03-23T17:49:26;99260.22;;;14.23;81.65
17230;BME280;8731;50.364;8.958;2023-03-23T17:53:51;99262.69;;;14.21;81.85
17230;BME280;8731;50.364;8.958;2023-03-23T17:58:15;99271.44;;;14.25;81.92
17230;BME280;8731;50.364;8.958;2023-03-23T18:02:37;99281.09;;;14.16;80.86
17230;BME280;8731;50.364;8.958;2023-03-23T18:07:00;99285.22;;;14.13;81.74
17230;BME280;8731;50.364;8.958;2023-03-23T18:11:24;99274.59;;;14.07;81.82
17230;BME280;8731;50.364;8.958;2023-03-23T18:15:47;99275.97;;;14.16;80.77
17230;BME280;8731;50.364;8.958;2023-03-23T18:20:09;99289.66;;;14.16;81.40
17230;BME280;8731;50.364;8.958;2023-03-23T18:24:39;99284.34;;;14.13;81.56
17230;BME280;8731;50.364;8.958;2023-03-23T18:29:03;99288.38;;;14.09;82.29
17230;BME280;8731;50.364;8.958;2023-03-23T18:33:25;99283.66;;;13.89;81.17
17230;BME280;8731;50.364;8.958;2023-03-23T18:37:47;99282.09;;;14.04;82.32
17230;BME280;8731;50.364;8.958;2023-03-23T18:42:10;99276.28;;;14.07;81.41
17230;BME280;8731;50.364;8.958;2023-03-23T18:46:33;99270.19;;;14.05;81.31
17230;BME280;8731;50.364;8.958;2023-03-23T18:50:57;99265.75;;;14.02;81.21
17230;BME280;8731;50.364;8.958;2023-03-23T18:55:20;99266.91;;;13.94;81.36
17230;BME280;8731;50.364;8.958;2023-03-23T18:59:43;99272.22;;;13.84;80.76
17230;BME280;8731;50.364;8.958;2023-03-23T19:04:06;99270.06;;;13.90;81.53
17230;BME280;8731;50.364;8.958;2023-03-23T19:08:32;99276.94;;;13.91;81.67
17230;BME280;8731;50.364;8.958;2023-03-23T19:12:55;99282.75;;;13.89;81.67
17230;BME280;8731;50.364;8.958;2023-03-23T19:17:17;99278.25;;;13.85;81.56
17230;BME280;8731;50.364;8.958;2023-03-23T19:21:41;99290.25;;;13.86;82.09
17230;BME280;8731;50.364;8.958;2023-03-23T19:26:04;99283.16;;;13.81;81.18
17230;BME280;8731;50.364;8.958;2023-03-23T19:30:27;99278.03;;;13.81;81.28
17230;BME280;8731;50.364;8.958;2023-03-23T19:34:49;99273.03;;;13.83;81.04
17230;BME280;8731;50.364;8.958;2023-03-23T19:39:13;99264.25;;;13.79;81.30
17230;BME280;8731;50.364;8.958;2023-03-23T19:43:35;99259.06;;;13.78;81.51
17230;BME280;8731;50.364;8.958;2023-03-23T19:48:00;99253.94;;;13.78;81.64
17230;BME280;8731;50.364;8.958;2023-03-23T19:52:23;99250.38;;;13.76;81.69
17230;BME280;8731;50.364;8.958;2023-03-23T19:56:47;99243.50;;;13.75;81.72
17230;BME280;8731;50.364;8.958;2023-03-23T20:01:09;99238.56;;;13.65;80.54
17230;BME280;8731;50.364;8.958;2023-03-23T20:05:32;99247.31;;;13.68;81.63
17230;BME280;8731;50.364;8.958;2023-03-23T20:09:55;99243.78;;;13.66;82.69
17230;BME280;8731;50.364;8.958;2023-03-23T20:14:19;99229.31;;;13.67;82.90
17230;BME280;8731;50.364;8.958;2023-03-23T20:18:41;99236.88;;;13.65;83.07
17230;BME280;8731;50.364;8.958;2023-03-23T20:23:04;99234.63;;;13.70;82.00
17230;BME280;8731;50.364;8.958;2023-03-23T20:27:28;99232.47;;;13.76;81.86
17230;BME280;8731;50.364;8.958;2023-03-23T20:31:51;99219.78;;;13.77;83.63
17230;BME280;8731;50.364;8.958;2023-03-23T20:36:14;99209.84;;;13.82;83.51
17230;BME280;8731;50.364;8.958;2023-03-23T20:40:39;99204.34;;;13.76;84.59
17230;BME280;8731;50.364;8.958;2023-03-23T20:45:02;99202.34;;;13.72;84.45
17230;BME280;8731;50.364;8.958;2023-03-23T20:49:27;99207.28;;;13.69;85.22
17230;BME280;8731;50.364;8.958;2023-03-23T20:53:50;99205.13;;;13.75;84.86
17230;BME280;8731;50.364;8.958;2023-03-23T20:58:12;99187.00;;;13.72;85.77
17230;BME280;8731;50.364;8.958;2023-03-23T21:02:35;99192.31;;;13.62;85.15
17230;BME280;8731;50.364;8.958;2023-03-23T21:06:59;99186.41;;;13.63;86.27
17230;BME280;8731;50.364;8.958;2023-03-23T21:11:24;99181.50;;;13.66;85.73
17230;BME280;8731;50.364;8.958;2023-03-23T21:15:47;99180.25;;;13.72;85.18
17230;BME280;8731;50.364;8.958;2023-03-23T21:20:09;99170.09;;;13.74;85.44
17230;BME280;8731;50.364;8.958;2023-03-23T21:24:34;99164.97;;;13.74;85.33
17230;BME280;8731;50.364;8.958;2023-03-23T21:28:57;99165.34;;;13.67;86.43
17230;BME280;8731;50.364;8.958;2023-03-23T21:33:20;99165.97;;;13.76;85.50
17230;BME280;8731;50.364;8.958;2023-03-23T21:37:43;99154.94;;;13.77;85.24
17230;BME280;8731;50.364;8.958;2023-03-23T21:42:09;99154.94;;;13.77;85.61
17230;BME280;8731;50.364;8.958;2023-03-23T21:46:32;99146.56;;;13.79;84.77
17230;BME280;8731;50.364;8.958;2023-03-23T21:51:03;99134.84;;;13.83;84.64
17230;BME280;8731;50.364;8.958;2023-03-23T21:55:27;99130.72;;;13.85;84.79
17230;BME280;8731;50.364;8.958;2023-03-23T21:59:51;99122.06;;;13.83;85.40
17230;BME280;8731;50.364;8.958;2023-03-23T22:04:13;99127.97;;;13.82;86.09
17230;BME280;8731;50.364;8.958;2023-03-23T22:08:37;99116.75;;;13.80;86.53
17230;BME280;8731;50.364;8.958;2023-03-23T22:13:01;99108.28;;;13.68;87.61
17230;BME280;8731;50.364;8.958;2023-03-23T22:17:24;99110.47;;;13.62;88.21
17230;BME280;8731;50.364;8.958;2023-03-23T22:21:47;99108.09;;;13.65;88.26
17230;BME280;8731;50.364;8.958;2023-03-23T22:26:10;99106.94;;;13.73;86.86
17230;BME280;8731;50.364;8.958;2023-03-23T22:30:34;99106.44;;;13.78;86.28
17230;BME280;8731;50.364;8.958;2023-03-23T22:34:58;99092.84;;;13.79;86.28
17230;BME280;8731;50.364;8.958;2023-03-23T22:39:20;99085.06;;;13.78;86.22
17230;BME280;8731;50.364;8.958;2023-03-23T22:43:43;99084.78;;;13.73;85.02
17230;BME280;8731;50.364;8.958;2023-03-23T22:48:05;99081.75;;;13.66;84.85
17230;BME280;8731;50.364;8.958;2023-03-23T22:52:29;99086.25;;;13.70;84.74
17230;BME280;8731;50.364;8.958;2023-03-23T22:56:51;99081.75;;;13.66;84.36
17230;BME280;8731;50.364;8.958;2023-03-23T23:01:15;99089.03;;;13.73;84.79
17230;BME280;8731;50.364;8.958;2023-03-23T23:05:40;99085.06;;;13.78;84.84
17230;BME280;8731;50.364;8.958;2023-03-23T23:10:06;99081.81;;;13.80;84.37
17230;BME280;8731;50.364;8.958;2023-03-23T23:14:28;99076.63;;;13.79;84.50
17230;BME280;8731;50.364;8.958;2023-03-23T23:18:51;99074.06;;;13.79;84.93
17230;BME280;8731;50.364;8.958;2023-03-23T23:23:13;99064.88;;;13.82;84.93
17230;BME280;8731;50.364;8.958;2023-03-23T23:27:37;99063.31;;;13.85;85.29
17230;BME280;8731;50.364;8.958;2023-03-23T23:31:59;99065.16;;;13.87;85.19
17230;BME280;8731;50.364;8.958;2023-03-23T23:36:22;99071.06;;;13.86;85.49
17230;BME280;8731;50.364;8.958;2023-03-23T23:40:48;99062.59;;;13.87;86.07
17230;BME280;8731;50.364;8.958;2023-03-23T23:45:13;99065.06;;;13.86;86.06
17230;BME280;8731;50.364;8.958;2023-03-23T23:49:36;99052.38;;;13.87;86.29
17230;BME280;8731;50.364;8.958;2023-03-23T23:53:59;99061.25;;;13.79;86.89
17230;BME280;8731;50.364;8.958;2023-03-23T23:58:21;99054.97;;;13.74;87.11
